Time;durP1;ratioP1;P1;durP2;ratioP2;P2;SDS_P1;SDS_P2;PMS_P1;PMS_P2;Temp;Humidity;BMP_temperature;BMP_pressure;BME280_temperature;BME280_humidity;BME280_pressure;Samples;Min_cycle;Max_cycle;Signal;HPM_P1;HPM_P2
2022/04/02 00:00:52;;;;;;;2.65;1.00;;;;;;;;;;5063286;28;20048;-73
2022/04/02 00:03:19;;;;;;;2.00;0.77;;;;;;;;;;5064626;28;20040;-73
2022/04/02 00:05:45;;;;;;;1.58;0.77;;;;;;;;;;5046776;28;20044;-73
2022/04/02 00:08:11;;;;;;;2.75;1.02;;;;;;;;;;5047800;28;20041;-73
2022/04/02 00:10:37;;;;;;;3.90;1.17;;;;;;;;;;5063392;28;20137;-73
2022/04/02 00:13:03;;;;;;;2.85;1.00;;;;;;;;;;5058644;28;20089;-73
2022/04/02 00:15:29;;;;;;;2.42;0.93;;;;;;;;;;5032501;28;20091;-73
2022/04/02 00:17:56;;;;;;;2.67;0.93;;;;;;;;;;5044772;28;20438;-73
2022/04/02 00:20:22;;;;;;;2.63;1.10;;;;;;;;;;5042775;28;20044;-74
2022/04/02 00:25:32;;;;;;;;;;;;;;;;;;5056839;28;20454;-73
2022/04/02 00:27:59;;;;;;;2.58;0.93;;;;;;;;;;5050432;28;19928;-74
2022/04/02 00:30:25;;;;;;;3.28;0.98;;;;;;;;;;5036927;28;20043;-73
2022/04/02 00:32:51;;;;;;;2.38;1.00;;;;;;;;;;5064340;28;20062;-73
2022/04/02 00:35:17;;;;;;;2.40;0.90;;;;;;;;;;5062608;28;20121;-73
2022/04/02 00:37:43;;;;;;;2.60;0.90;;;;;;;;;;5042092;28;20075;-73
2022/04/02 00:40:09;;;;;;;4.00;1.10;;;;;;;;;;5033823;28;21335;-73
2022/04/02 00:42:35;;;;;;;2.90;0.95;;;;;;;;;;5063932;28;20569;-73
2022/04/02 00:45:01;;;;;;;3.33;1.10;;;;;;;;;;5038352;28;20044;-73
2022/04/02 00:47:27;;;;;;;3.47;1.00;;;;;;;;;;5038196;28;20132;-73
2022/04/02 00:49:54;;;;;;;2.55;1.02;;;;;;;;;;5048622;28;20135;-74
2022/04/02 00:52:20;;;;;;;3.70;1.10;;;;;;;;;;5055382;28;20040;-74
2022/04/02 00:54:48;;;;;;;3.65;1.23;;;;;;;;;;5036683;28;20048;-73
2022/04/02 00:57:14;;;;;;;3.13;1.00;;;;;;;;;;5030535;28;20363;-74
2022/04/02 00:59:40;;;;;;;3.15;0.90;;;;;;;;;;5043630;28;20048;-74
2022/04/02 01:02:06;;;;;;;2.78;0.90;;;;;;;;;;5049145;28;20115;-74
2022/04/02 01:04:32;;;;;;;3.03;0.93;;;;;;;;;;5026736;28;20124;-74
2022/04/02 01:06:59;;;;;;;2.42;1.00;;;;;;;;;;5042830;28;20076;-73
2022/04/02 01:09:25;;;;;;;3.45;0.95;;;;;;;;;;5044601;28;20306;-73
2022/04/02 01:11:54;;;;;;;2.47;0.90;;;;;;;;;;5062813;28;20517;-74
2022/04/02 01:14:20;;;;;;;2.15;0.90;;;;;;;;;;5045771;28;20637;-74
2022/04/02 01:16:46;;;;;;;3.47;1.00;;;;;;;;;;5046565;28;20098;-74
2022/04/02 01:19:12;;;;;;;2.78;1.00;;;;;;;;;;5063087;28;20037;-74
2022/04/02 01:21:38;;;;;;;3.10;1.02;;;;;;;;;;5043032;28;20045;-73
2022/04/02 01:24:04;;;;;;;4.28;1.23;;;;;;;;;;5033524;28;20120;-74
2022/04/02 01:26:31;;;;;;;3.92;1.25;;;;;;;;;;5043625;28;20048;-74
2022/04/02 01:28:57;;;;;;;2.70;1.10;;;;;;;;;;5049935;28;20707;-73
2022/04/02 01:31:24;;;;;;;2.80;1.08;;;;;;;;;;5040093;28;20033;-74
2022/04/02 01:33:51;;;;;;;2.90;1.00;;;;;;;;;;5029025;28;20075;-74
2022/04/02 01:36:17;;;;;;;3.42;1.30;;;;;;;;;;5045968;28;20053;-74
2022/04/02 01:38:43;;;;;;;2.78;0.90;;;;;;;;;;5042868;28;20125;-73
2022/04/02 01:41:09;;;;;;;3.00;1.00;;;;;;;;;;5046668;28;20119;-73
2022/04/02 01:43:35;;;;;;;2.53;0.95;;;;;;;;;;5045921;28;20132;-74
2022/04/02 01:46:03;;;;;;;2.13;0.80;;;;;;;;;;5061192;28;20047;-74
2022/04/02 01:48:30;;;;;;;3.10;0.93;;;;;;;;;;5062720;28;20048;-74
2022/04/02 01:50:56;;;;;;;3.47;0.95;;;;;;;;;;5056745;28;20062;-73
2022/04/02 01:53:23;;;;;;;2.70;1.02;;;;;;;;;;5015596;28;20095;-73
2022/04/02 01:55:49;;;;;;;2.67;0.90;;;;;;;;;;5026301;28;20056;-73
2022/04/02 01:58:16;;;;;;;2.38;0.98;;;;;;;;;;5055061;28;20123;-74
2022/04/02 02:00:42;;;;;;;2.60;1.02;;;;;;;;;;5061142;28;20061;-74
2022/04/02 02:03:08;;;;;;;3.22;1.15;;;;;;;;;;5052021;28;20118;-74
2022/04/02 02:05:35;;;;;;;2.20;0.80;;;;;;;;;;5047606;28;20123;-74
2022/04/02 02:08:01;;;;;;;2.65;1.00;;;;;;;;;;5029209;28;20036;-73
2022/04/02 02:10:27;;;;;;;3.70;1.10;;;;;;;;;;5034539;28;20116;-74
2022/04/02 02:12:53;;;;;;;4.05;1.20;;;;;;;;;;5048309;28;20127;-74
2022/04/02 02:15:19;;;;;;;3.47;1.10;;;;;;;;;;5058352;28;20178;-74
2022/04/02 02:17:45;;;;;;;3.03;1.10;;;;;;;;;;5061690;28;20036;-74
2022/04/02 02:20:12;;;;;;;3.13;1.08;;;;;;;;;;5054278;28;20036;-74
2022/04/02 02:22:41;;;;;;;2.45;1.00;;;;;;;;;;5042426;28;20049;-74
2022/04/02 02:25:11;;;;;;;2.90;1.00;;;;;;;;;;5047897;28;20047;-74
2022/04/02 02:27:37;;;;;;;3.38;1.10;;;;;;;;;;5056583;28;20079;-74
2022/04/02 02:30:06;;;;;;;4.80;0.98;;;;;;;;;;5052399;28;20540;-74
2022/04/02 02:32:36;;;;;;;2.85;0.95;;;;;;;;;;5025679;28;20037;-74
2022/04/02 02:37:53;;;;;;;2.75;0.90;;;;;;;;;;5060385;28;20131;-74
2022/04/02 02:40:19;;;;;;;3.85;1.00;;;;;;;;;;5049767;28;20041;-74
2022/04/02 02:42:45;;;;;;;2.65;1.00;;;;;;;;;;5062098;28;20083;-74
2022/04/02 02:45:12;;;;;;;2.75;0.98;;;;;;;;;;5045237;28;20081;-74
2022/04/02 02:47:38;;;;;;;2.67;1.10;;;;;;;;;;5026901;28;20140;-74
2022/04/02 02:50:04;;;;;;;3.40;0.80;;;;;;;;;;5048574;28;20378;-74
2022/04/02 02:52:30;;;;;;;3.25;1.00;;;;;;;;;;5062253;28;20049;-74
2022/04/02 02:54:57;;;;;;;1.95;0.77;;;;;;;;;;5044060;28;20029;-74
2022/04/02 02:57:23;;;;;;;3.90;1.15;;;;;;;;;;5060998;28;20401;-74
2022/04/02 02:59:49;;;;;;;3.42;0.90;;;;;;;;;;5059389;28;20036;-74
2022/04/02 03:02:15;;;;;;;1.85;0.82;;;;;;;;;;5025820;28;20041;-74
2022/04/02 03:04:41;;;;;;;2.45;0.70;;;;;;;;;;5051751;28;20151;-74
2022/04/02 03:07:07;;;;;;;3.17;0.90;;;;;;;;;;5054407;28;20052;-74
2022/04/02 03:09:33;;;;;;;3.83;1.00;;;;;;;;;;5027111;28;20171;-74
2022/04/02 03:12:00;;;;;;;2.53;0.85;;;;;;;;;;5060924;28;20116;-74
2022/04/02 03:14:26;;;;;;;2.60;0.90;;;;;;;;;;5061384;28;20044;-74
2022/04/02 03:16:52;;;;;;;3.60;0.93;;;;;;;;;;5051021;28;20043;-74
2022/04/02 03:19:18;;;;;;;2.03;0.75;;;;;;;;;;5050408;28;20127;-74
2022/04/02 03:21:44;;;;;;;2.95;0.93;;;;;;;;;;5027535;28;20625;-74
2022/04/02 03:24:11;;;;;;;2.28;0.88;;;;;;;;;;5041641;28;20423;-74
2022/04/02 03:26:38;;;;;;;2.25;1.00;;;;;;;;;;5025548;28;20095;-74
2022/04/02 03:29:05;;;;;;;2.38;0.82;;;;;;;;;;5041773;28;20051;-74
2022/04/02 03:31:31;;;;;;;2.55;0.80;;;;;;;;;;5052508;28;20045;-74
2022/04/02 03:33:57;;;;;;;1.98;0.90;;;;;;;;;;5037459;28;20551;-73
2022/04/02 03:36:23;;;;;;;2.15;0.90;;;;;;;;;;5057027;28;20088;-74
2022/04/02 03:38:49;;;;;;;2.90;1.10;;;;;;;;;;5048541;28;20095;-74
2022/04/02 03:41:15;;;;;;;2.80;0.80;;;;;;;;;;5038825;28;20589;-74
2022/04/02 03:43:41;;;;;;;2.90;0.88;;;;;;;;;;5045379;28;20052;-74
2022/04/02 03:48:52;;;;;;;;;;;;;;;;;;5052459;28;20048;-74
2022/04/02 03:51:18;;;;;;;1.75;0.63;;;;;;;;;;5051286;28;20354;-74
2022/04/02 03:53:44;;;;;;;3.03;0.90;;;;;;;;;;5062920;28;20098;-74
2022/04/02 03:56:10;;;;;;;2.97;1.00;;;;;;;;;;5059245;28;20032;-74
2022/04/02 03:58:37;;;;;;;2.33;0.90;;;;;;;;;;5065486;28;20712;-74
2022/04/02 04:01:03;;;;;;;2.38;0.80;;;;;;;;;;5047869;28;20127;-74
2022/04/02 04:03:29;;;;;;;3.33;1.10;;;;;;;;;;5063304;28;20123;-74
2022/04/02 04:05:55;;;;;;;3.72;1.00;;;;;;;;;;5045967;28;20488;-75
2022/04/02 04:08:21;;;;;;;3.05;0.93;;;;;;;;;;5063629;28;20040;-74
2022/04/02 04:10:47;;;;;;;2.50;0.75;;;;;;;;;;5062278;28;20132;-74
2022/04/02 04:13:13;;;;;;;2.08;0.93;;;;;;;;;;5063398;28;20119;-73
2022/04/02 04:15:38;;;;;;;2.45;0.90;;;;;;;;;;5051132;28;20033;-74
2022/04/02 04:18:04;;;;;;;3.00;1.00;;;;;;;;;;5043040;28;20690;-73
2022/04/02 04:20:32;;;;;;;2.88;0.88;;;;;;;;;;5042841;28;20055;-74
2022/04/02 04:22:58;;;;;;;3.20;1.10;;;;;;;;;;5012471;28;20052;-73
2022/04/02 04:25:24;;;;;;;3.53;1.00;;;;;;;;;;5050400;28;20058;-73
2022/04/02 04:27:50;;;;;;;1.73;0.77;;;;;;;;;;5054497;28;20047;-74
2022/04/02 04:30:16;;;;;;;3.53;0.90;;;;;;;;;;5047916;28;20045;-73
2022/04/02 04:32:42;;;;;;;2.63;0.90;;;;;;;;;;5048865;28;20099;-73
2022/04/02 04:35:08;;;;;;;2.50;0.80;;;;;;;;;;5044420;28;20059;-73
2022/04/02 04:37:38;;;;;;;3.80;0.90;;;;;;;;;;5044428;28;20060;-73
2022/04/02 04:40:05;;;;;;;2.55;0.85;;;;;;;;;;5053595;28;20090;-74
2022/04/02 04:42:31;;;;;;;3.30;0.80;;;;;;;;;;5046318;28;20085;-73
2022/04/02 04:44:57;;;;;;;3.30;1.00;;;;;;;;;;5046519;28;20517;-73
2022/04/02 04:47:23;;;;;;;2.47;0.75;;;;;;;;;;5064242;28;20051;-74
2022/04/02 04:49:49;;;;;;;2.35;0.90;;;;;;;;;;5063042;28;20048;-74
2022/04/02 04:52:15;;;;;;;4.40;1.05;;;;;;;;;;5048378;28;20726;-73
2022/04/02 04:54:41;;;;;;;2.60;0.80;;;;;;;;;;5037802;28;20075;-74
2022/04/02 04:57:07;;;;;;;2.72;0.90;;;;;;;;;;5027564;28;20033;-74
2022/04/02 04:59:33;;;;;;;1.70;0.70;;;;;;;;;;5056677;28;20139;-74
2022/04/02 05:01:59;;;;;;;2.40;0.80;;;;;;;;;;5055414;28;20177;-74
2022/04/02 05:04:25;;;;;;;2.20;0.80;;;;;;;;;;5038089;28;20037;-74
2022/04/02 05:06:53;;;;;;;2.90;0.90;;;;;;;;;;5046851;28;20060;-74
2022/04/02 05:09:19;;;;;;;2.80;0.90;;;;;;;;;;5046213;28;20044;-74
2022/04/02 05:11:45;;;;;;;3.05;1.00;;;;;;;;;;5062049;28;20041;-74
2022/04/02 05:14:13;;;;;;;1.65;0.75;;;;;;;;;;5063510;28;20032;-73
2022/04/02 05:16:39;;;;;;;2.92;1.00;;;;;;;;;;5060872;28;20040;-74
2022/04/02 05:19:06;;;;;;;3.08;1.05;;;;;;;;;;5043372;28;20040;-74
2022/04/02 05:21:32;;;;;;;3.75;1.30;;;;;;;;;;5060622;28;20075;-74
2022/04/02 05:23:58;;;;;;;3.20;1.10;;;;;;;;;;5047259;28;20182;-74
2022/04/02 05:26:24;;;;;;;3.53;0.90;;;;;;;;;;5047892;28;20071;-74
2022/04/02 05:28:50;;;;;;;2.75;0.90;;;;;;;;;;5043122;28;20114;-74
2022/04/02 05:31:16;;;;;;;4.57;1.10;;;;;;;;;;5059105;28;20169;-73
2022/04/02 05:33:42;;;;;;;3.17;1.00;;;;;;;;;;5046266;28;20615;-74
2022/04/02 05:36:08;;;;;;;3.22;1.10;;;;;;;;;;5036943;28;20044;-74
2022/04/02 05:38:34;;;;;;;3.88;0.93;;;;;;;;;;5020208;28;20068;-74
2022/04/02 05:41:00;;;;;;;2.60;1.10;;;;;;;;;;5043325;28;20048;-74
2022/04/02 05:43:27;;;;;;;3.10;1.00;;;;;;;;;;5042967;28;20041;-74
2022/04/02 05:45:52;;;;;;;3.03;0.90;;;;;;;;;;5033157;28;20136;-74
2022/04/02 05:48:20;;;;;;;3.30;1.27;;;;;;;;;;5029733;28;20445;-74
2022/04/02 05:50:46;;;;;;;2.85;1.00;;;;;;;;;;5058830;28;20051;-73
2022/04/02 05:53:12;;;;;;;3.08;0.90;;;;;;;;;;5049514;28;20037;-74
2022/04/02 05:55:38;;;;;;;2.95;1.08;;;;;;;;;;5055323;28;20813;-74
2022/04/02 05:58:04;;;;;;;3.20;1.10;;;;;;;;;;5062465;28;20578;-74
2022/04/02 06:00:31;;;;;;;2.20;0.90;;;;;;;;;;5061929;28;20040;-74
2022/04/02 06:02:57;;;;;;;3.03;0.90;;;;;;;;;;5062601;28;20093;-74
2022/04/02 06:05:23;;;;;;;2.53;1.20;;;;;;;;;;5061246;28;20083;-74
2022/04/02 06:07:49;;;;;;;3.65;1.23;;;;;;;;;;5062180;28;20124;-74
2022/04/02 06:10:15;;;;;;;3.13;1.20;;;;;;;;;;5059933;28;20123;-74
2022/04/02 06:12:41;;;;;;;3.78;1.00;;;;;;;;;;5062262;28;20032;-74
2022/04/02 06:15:09;;;;;;;3.15;1.10;;;;;;;;;;5044346;28;20075;-74
2022/04/02 06:17:35;;;;;;;2.55;0.95;;;;;;;;;;5062477;28;20048;-74
2022/04/02 06:20:01;;;;;;;3.33;1.27;;;;;;;;;;5054994;28;20537;-74
2022/04/02 06:22:27;;;;;;;2.95;1.10;;;;;;;;;;5042368;28;20694;-73
2022/04/02 06:24:53;;;;;;;3.03;1.02;;;;;;;;;;5032957;28;20132;-74
2022/04/02 06:27:19;;;;;;;3.60;1.30;;;;;;;;;;5048640;28;20592;-74
2022/04/02 06:29:45;;;;;;;5.13;1.15;;;;;;;;;;5021990;28;20049;-74
2022/04/02 06:32:11;;;;;;;3.47;1.00;;;;;;;;;;5031271;28;20195;-74
2022/04/02 06:34:37;;;;;;;4.00;1.25;;;;;;;;;;5030449;28;20080;-74
2022/04/02 06:37:03;;;;;;;3.67;1.08;;;;;;;;;;5032682;28;20085;-74
2022/04/02 06:39:30;;;;;;;3.10;0.90;;;;;;;;;;5036972;28;20056;-74
2022/04/02 06:41:56;;;;;;;3.53;1.00;;;;;;;;;;5035963;28;20047;-74
2022/04/02 06:44:22;;;;;;;3.72;1.10;;;;;;;;;;5047715;28;20083;-74
2022/04/02 06:46:48;;;;;;;4.47;1.10;;;;;;;;;;5033817;28;20151;-74
2022/04/02 06:49:14;;;;;;;4.03;1.15;;;;;;;;;;5030984;28;20062;-75
2022/04/02 06:51:40;;;;;;;4.10;1.23;;;;;;;;;;5041673;28;20503;-75
2022/04/02 06:54:07;;;;;;;3.60;1.13;;;;;;;;;;5051290;28;20048;-75
2022/04/02 06:56:33;;;;;;;4.18;1.20;;;;;;;;;;5047854;28;20048;-75
2022/04/02 06:58:59;;;;;;;2.50;1.00;;;;;;;;;;5052934;28;20052;-74
2022/04/02 07:01:25;;;;;;;3.85;1.10;;;;;;;;;;5049009;28;20116;-75
2022/04/02 07:03:52;;;;;;;2.42;1.00;;;;;;;;;;5055725;28;20656;-75
2022/04/02 07:06:18;;;;;;;3.05;1.00;;;;;;;;;;5057087;28;20124;-74
2022/04/02 07:08:44;;;;;;;5.15;1.25;;;;;;;;;;5057704;28;20128;-74
2022/04/02 07:11:10;;;;;;;3.35;0.98;;;;;;;;;;5052459;28;20037;-75
2022/04/02 07:13:36;;;;;;;6.10;1.00;;;;;;;;;;5037299;28;20051;-74
2022/04/02 07:16:02;;;;;;;4.15;1.00;;;;;;;;;;5054810;28;20044;-74
2022/04/02 07:18:28;;;;;;;3.75;0.82;;;;;;;;;;5061479;28;20514;-74
2022/04/02 07:20:54;;;;;;;4.57;1.00;;;;;;;;;;5054337;28;20714;-74
2022/04/02 07:23:21;;;;;;;3.80;1.10;;;;;;;;;;5041029;28;20123;-74
2022/04/02 07:25:49;;;;;;;3.30;1.10;;;;;;;;;;5039354;28;20063;-74
2022/04/02 07:28:15;;;;;;;2.63;0.80;;;;;;;;;;5040612;28;20052;-74
2022/04/02 07:30:41;;;;;;;3.92;1.30;;;;;;;;;;5052106;28;20049;-74
2022/04/02 07:33:07;;;;;;;3.65;1.00;;;;;;;;;;5061865;28;20603;-74
2022/04/02 07:35:34;;;;;;;4.03;1.02;;;;;;;;;;5055396;28;20047;-74
2022/04/02 07:38:00;;;;;;;3.13;1.20;;;;;;;;;;5031094;28;20048;-74
2022/04/02 07:40:29;;;;;;;3.83;0.93;;;;;;;;;;5047594;28;20032;-74
2022/04/02 07:43:04;;;;;;;3.55;1.10;;;;;;;;;;5055112;28;20103;-74
2022/04/02 07:45:38;;;;;;;3.15;0.90;;;;;;;;;;5031506;28;20056;-74
2022/04/02 07:48:06;;;;;;;2.80;0.82;;;;;;;;;;5043651;28;20771;-74
2022/04/02 07:50:33;;;;;;;2.45;0.70;;;;;;;;;;5063901;28;20590;-74
2022/04/02 07:53:04;;;;;;;4.38;0.93;;;;;;;;;;5081693;28;20075;-74
2022/04/02 07:55:30;;;;;;;3.33;0.93;;;;;;;;;;5072846;28;20045;-73
2022/04/02 07:57:57;;;;;;;2.38;0.90;;;;;;;;;;5042623;28;20043;-74
2022/04/02 08:00:26;;;;;;;4.35;0.90;;;;;;;;;;5046388;28;20083;-74
2022/04/02 08:02:52;;;;;;;4.35;1.00;;;;;;;;;;5044839;28;20040;-74
2022/04/02 08:05:19;;;;;;;2.78;0.90;;;;;;;;;;5043735;28;20091;-72
2022/04/02 08:07:57;;;;;;;2.85;0.90;;;;;;;;;;5047809;28;20048;-75
2022/04/02 08:10:25;;;;;;;3.78;0.80;;;;;;;;;;5044274;28;20076;-74
2022/04/02 08:12:51;;;;;;;3.47;1.00;;;;;;;;;;5064069;28;20048;-73
2022/04/02 08:15:18;;;;;;;2.20;0.80;;;;;;;;;;5046260;28;20044;-73
2022/04/02 08:17:45;;;;;;;2.75;0.90;;;;;;;;;;5064738;28;20047;-73
2022/04/02 08:20:14;;;;;;;4.78;0.90;;;;;;;;;;5063066;28;20093;-74
2022/04/02 08:22:40;;;;;;;4.07;1.00;;;;;;;;;;5064169;28;20045;-73
2022/04/02 08:25:07;;;;;;;2.60;0.80;;;;;;;;;;5064052;28;20047;-73
2022/04/02 08:27:44;;;;;;;3.45;0.90;;;;;;;;;;5045178;28;20056;-74
2022/04/02 08:30:11;;;;;;;3.28;0.90;;;;;;;;;;5033676;28;20083;-73
2022/04/02 08:32:55;;;;;;;2.67;1.00;;;;;;;;;;5034124;28;20079;-74
2022/04/02 08:35:31;;;;;;;2.10;0.75;;;;;;;;;;5047832;28;20041;-74
2022/04/02 08:38:04;;;;;;;2.78;0.85;;;;;;;;;;5044349;28;20048;-74
2022/04/02 08:40:49;;;;;;;3.25;1.00;;;;;;;;;;5053001;28;20090;-74
2022/04/02 08:43:21;;;;;;;3.40;1.02;;;;;;;;;;5064138;28;20044;-74
2022/04/02 08:45:53;;;;;;;3.55;1.13;;;;;;;;;;5050462;28;20048;-74
2022/04/02 08:48:23;;;;;;;3.67;1.02;;;;;;;;;;5045683;28;20509;-74
2022/04/02 08:50:52;;;;;;;3.92;0.90;;;;;;;;;;5056244;28;20044;-74
2022/04/02 08:53:20;;;;;;;2.95;0.77;;;;;;;;;;5038889;28;20048;-74
2022/04/02 08:56:01;;;;;;;3.25;0.90;;;;;;;;;;5040779;28;20072;-74
2022/04/02 08:58:34;;;;;;;4.70;1.00;;;;;;;;;;5062562;28;20140;-74
2022/04/02 09:01:03;;;;;;;2.85;0.80;;;;;;;;;;5044098;28;20123;-75
2022/04/02 09:03:42;;;;;;;4.53;1.00;;;;;;;;;;5039858;28;20045;-74
2022/04/02 09:06:27;;;;;;;3.40;1.00;;;;;;;;;;5066489;28;20127;-75
2022/04/02 09:09:04;;;;;;;5.65;1.23;;;;;;;;;;5054951;28;20387;-75
2022/04/02 09:11:37;;;;;;;2.60;0.90;;;;;;;;;;5063898;28;20037;-75
2022/04/02 09:14:16;;;;;;;3.58;0.90;;;;;;;;;;5040787;28;20802;-76
2022/04/02 09:16:48;;;;;;;2.42;0.90;;;;;;;;;;5045307;28;20049;-75
2022/04/02 09:19:23;;;;;;;5.45;1.10;;;;;;;;;;5054436;28;20044;-75
2022/04/02 09:21:52;;;;;;;3.67;0.90;;;;;;;;;;5053426;28;20639;-75
2022/04/02 09:24:34;;;;;;;5.10;1.10;;;;;;;;;;5046254;28;20040;-76
2022/04/02 09:27:19;;;;;;;1.83;0.75;;;;;;;;;;5052290;28;20192;-75
2022/04/02 09:30:04;;;;;;;3.42;1.20;;;;;;;;;;5033030;28;20044;-75
2022/04/02 09:32:48;;;;;;;3.63;0.82;;;;;;;;;;5046942;28;20049;-75
2022/04/02 09:35:21;;;;;;;4.10;0.90;;;;;;;;;;5055787;28;20036;-73
2022/04/02 09:38:07;;;;;;;3.85;1.10;;;;;;;;;;5044310;28;20106;-74
2022/04/02 09:40:45;;;;;;;3.28;0.90;;;;;;;;;;5042996;28;20056;-73
2022/04/02 09:43:21;;;;;;;3.17;0.90;;;;;;;;;;5042712;28;20106;-74
2022/04/02 09:46:05;;;;;;;2.30;0.80;;;;;;;;;;5055304;28;20076;-75
2022/04/02 09:48:38;;;;;;;4.15;1.00;;;;;;;;;;5043340;28;20118;-75
2022/04/02 09:51:07;;;;;;;3.63;0.80;;;;;;;;;;5040574;28;20154;-75
2022/04/02 09:53:39;;;;;;;3.13;0.85;;;;;;;;;;5032242;28;20060;-74
2022/04/02 09:56:12;;;;;;;3.72;0.90;;;;;;;;;;5056653;28;20045;-75
2022/04/02 09:58:44;;;;;;;2.60;0.80;;;;;;;;;;5037435;28;20040;-74
2022/04/02 10:01:26;;;;;;;1.65;0.70;;;;;;;;;;5058255;28;20713;-73
2022/04/02 10:04:00;;;;;;;1.70;0.70;;;;;;;;;;5033638;28;20037;-75
2022/04/02 10:06:47;;;;;;;3.60;1.00;;;;;;;;;;5040882;28;20126;-74
2022/04/02 10:09:14;;;;;;;2.33;0.82;;;;;;;;;;5025410;28;20537;-73
2022/04/02 10:11:53;;;;;;;3.25;0.90;;;;;;;;;;5060960;28;20119;-74
2022/04/02 10:14:23;;;;;;;2.75;0.73;;;;;;;;;;5044142;28;20032;-74
2022/04/02 10:16:52;;;;;;;2.72;0.80;;;;;;;;;;5025540;28;20057;-73
2022/04/02 10:19:26;;;;;;;2.78;0.82;;;;;;;;;;5042136;28;20079;-73
2022/04/02 10:21:52;;;;;;;;;;;;;;;;;;5042699;28;20474;-75
2022/04/02 10:24:26;;;;;;;4.70;0.93;;;;;;;;;;5041765;28;19959;-74
2022/04/02 10:26:56;;;;;;;1.98;0.80;;;;;;;;;;5042152;28;20041;-74
2022/04/02 10:29:41;;;;;;;3.38;0.80;;;;;;;;;;5042216;28;20048;-74
2022/04/02 10:32:07;;;;;;;;;;;;;;;;;;5037560;28;20037;-73
2022/04/02 10:34:36;;;;;;;2.90;0.90;;;;;;;;;;5033074;28;19986;-74
2022/04/02 10:37:22;;;;;;;4.35;0.80;;;;;;;;;;5070157;28;20053;-74
2022/04/02 10:40:00;;;;;;;3.05;0.90;;;;;;;;;;5047813;28;20051;-74
2022/04/02 10:42:36;;;;;;;2.38;0.90;;;;;;;;;;5065710;28;20079;-73
2022/04/02 10:45:11;;;;;;;2.22;0.73;;;;;;;;;;5065052;28;20040;-74
2022/04/02 10:47:57;;;;;;;1.45;0.60;;;;;;;;;;5049736;28;20040;-74
2022/04/02 10:50:24;;;;;;;2.35;0.80;;;;;;;;;;5066129;28;20056;-75
2022/04/02 10:52:50;;;;;;;1.20;0.60;;;;;;;;;;5066363;28;20037;-76
2022/04/02 10:55:20;;;;;;;3.45;0.70;;;;;;;;;;5029478;28;20044;-74
2022/04/02 10:57:47;;;;;;;2.15;0.77;;;;;;;;;;5041633;28;20033;-74
2022/04/02 11:00:13;;;;;;;4.30;1.00;;;;;;;;;;5044579;28;20551;-73
2022/04/02 11:02:44;;;;;;;2.78;0.90;;;;;;;;;;5046711;28;20510;-75
2022/04/02 11:05:14;;;;;;;4.18;1.25;;;;;;;;;;5036286;28;20048;-73
2022/04/02 11:07:44;;;;;;;3.17;0.80;;;;;;;;;;5036893;28;20041;-74
2022/04/02 11:10:14;;;;;;;4.25;1.00;;;;;;;;;;5047343;28;20124;-75
2022/04/02 11:12:42;;;;;;;3.05;0.82;;;;;;;;;;5049797;28;20040;-73
2022/04/02 11:15:09;;;;;;;5.07;1.10;;;;;;;;;;5050729;28;20039;-75
2022/04/02 11:17:37;;;;;;;3.35;0.90;;;;;;;;;;5045535;28;20037;-75
2022/04/02 11:20:03;;;;;;;3.15;0.95;;;;;;;;;;5033034;28;20039;-75
2022/04/02 11:22:30;;;;;;;2.95;0.85;;;;;;;;;;5043836;28;20037;-73
2022/04/02 11:24:56;;;;;;;3.80;1.00;;;;;;;;;;5033127;28;20044;-75
2022/04/02 11:27:24;;;;;;;5.35;0.90;;;;;;;;;;5045436;28;20060;-75
2022/04/02 11:29:51;;;;;;;4.50;0.93;;;;;;;;;;5049396;28;20037;-75
2022/04/02 11:32:24;;;;;;;3.67;0.85;;;;;;;;;;5064506;28;20041;-75
2022/04/02 11:34:51;;;;;;;2.40;0.70;;;;;;;;;;5049189;28;20043;-74
2022/04/02 11:37:20;;;;;;;2.80;0.70;;;;;;;;;;5065455;28;20729;-75
2022/04/02 11:39:52;;;;;;;1.98;0.80;;;;;;;;;;5059939;28;20032;-75
2022/04/02 11:42:24;;;;;;;1.58;0.60;;;;;;;;;;5054250;28;20049;-75
2022/04/02 11:44:52;;;;;;;2.15;0.80;;;;;;;;;;5051578;28;20047;-76
2022/04/02 11:47:26;;;;;;;3.53;0.93;;;;;;;;;;5065527;28;20116;-75
2022/04/02 11:49:54;;;;;;;2.70;0.80;;;;;;;;;;5046517;28;20041;-76
2022/04/02 11:52:20;;;;;;;3.03;0.80;;;;;;;;;;5044014;28;20048;-74
2022/04/02 11:54:49;;;;;;;3.70;0.90;;;;;;;;;;5031847;28;20033;-76
2022/04/02 11:57:16;;;;;;;2.47;0.90;;;;;;;;;;5031847;28;20047;-74
2022/04/02 11:59:52;;;;;;;2.58;0.70;;;;;;;;;;5043869;28;20044;-75
2022/04/02 12:02:39;;;;;;;2.58;0.73;;;;;;;;;;5036427;28;20652;-74
2022/04/02 12:05:06;;;;;;;4.13;0.70;;;;;;;;;;5046571;28;20783;-71
2022/04/02 12:07:43;;;;;;;3.20;0.93;;;;;;;;;;5064004;28;20052;-73
2022/04/02 12:10:16;;;;;;;2.83;0.80;;;;;;;;;;5060455;28;20040;-72
2022/04/02 12:12:49;;;;;;;4.25;0.80;;;;;;;;;;5064903;28;20051;-75
2022/04/02 12:15:16;;;;;;;1.98;0.60;;;;;;;;;;5064711;28;20037;-75
2022/04/02 12:17:52;;;;;;;2.20;0.70;;;;;;;;;;5065588;28;20045;-74
2022/04/02 12:20:27;;;;;;;1.92;0.60;;;;;;;;;;5062803;28;20036;-72
2022/04/02 12:23:09;;;;;;;2.30;0.80;;;;;;;;;;5055338;28;20589;-71
2022/04/02 12:25:35;;;;;;;1.52;0.73;;;;;;;;;;5013702;28;20097;-71
2022/04/02 12:28:10;;;;;;;2.83;0.98;;;;;;;;;;5055704;28;20071;-75
2022/04/02 12:30:37;;;;;;;3.75;0.90;;;;;;;;;;5054027;28;20558;-73
2022/04/02 12:33:07;;;;;;;2.90;0.80;;;;;;;;;;5063625;28;20079;-72
2022/04/02 12:35:33;;;;;;;2.50;0.75;;;;;;;;;;5050196;28;20119;-72
2022/04/02 12:38:02;;;;;;;2.15;0.73;;;;;;;;;;5027843;28;20104;-70
2022/04/02 12:40:29;;;;;;;3.30;0.80;;;;;;;;;;5044064;28;20041;-74
2022/04/02 12:42:56;;;;;;;2.47;0.70;;;;;;;;;;5042557;28;20045;-75
2022/04/02 12:45:24;;;;;;;2.78;0.75;;;;;;;;;;5045571;28;20686;-75
2022/04/02 12:48:10;;;;;;;2.25;0.80;;;;;;;;;;5067180;28;20543;-75
2022/04/02 12:50:49;;;;;;;2.15;0.85;;;;;;;;;;5066288;28;20635;-74
2022/04/02 12:53:34;;;;;;;4.68;1.30;;;;;;;;;;5065137;28;20424;-75
2022/04/02 12:56:01;;;;;;;2.88;0.80;;;;;;;;;;5059821;28;20048;-74
2022/04/02 12:58:31;;;;;;;2.40;0.70;;;;;;;;;;5026162;28;20041;-74
2022/04/02 13:01:08;;;;;;;2.47;0.93;;;;;;;;;;5025790;28;20056;-72
2022/04/02 13:03:39;;;;;;;3.92;0.82;;;;;;;;;;5052582;28;20721;-73
2022/04/02 13:06:07;;;;;;;2.13;0.60;;;;;;;;;;5054893;28;20032;-73
2022/04/02 13:08:38;;;;;;;2.50;0.60;;;;;;;;;;5045685;28;20061;-73
2022/04/02 13:11:04;;;;;;;3.67;0.70;;;;;;;;;;5042753;28;20043;-71
2022/04/02 13:13:33;;;;;;;2.45;0.85;;;;;;;;;;5026180;28;20761;-73
2022/04/02 13:16:00;;;;;;;4.97;0.98;;;;;;;;;;5056435;28;20052;-76
2022/04/02 13:21:16;;;;;;;2.85;0.80;;;;;;;;;;5061407;28;20040;-75
2022/04/02 13:23:47;;;;;;;1.85;0.70;;;;;;;;;;5135383;27;1272327;-71
2022/04/02 13:26:14;;;;;;;1.90;0.73;;;;;;;;;;5136892;27;20046;-70
2022/04/02 13:28:46;;;;;;;2.05;0.70;;;;;;;;;;5159490;27;20046;-71
2022/04/02 13:31:14;;;;;;;3.17;0.80;;;;;;;;;;5158063;27;20241;-70
2022/04/02 13:33:49;;;;;;;2.08;0.70;;;;;;;;;;5142616;27;20338;-70
2022/04/02 13:36:20;;;;;;;4.30;0.70;;;;;;;;;;5140410;27;20547;-70
2022/04/02 13:38:55;;;;;;;3.85;0.82;;;;;;;;;;5139031;27;20098;-71
2022/04/02 13:41:27;;;;;;;1.55;0.70;;;;;;;;;;5155086;27;20045;-70
2022/04/02 13:44:02;;;;;;;5.40;0.90;;;;;;;;;;5160395;27;20405;-70
2022/04/02 13:46:28;;;;;;;;;;;;;;;;;;5158087;27;20034;-71
2022/04/02 13:49:05;;;;;;;1.75;0.68;;;;;;;;;;5159619;27;20144;-70
2022/04/02 13:51:43;;;;;;;3.15;0.77;;;;;;;;;;5135667;27;20046;-70
2022/04/02 13:54:30;;;;;;;2.22;0.73;;;;;;;;;;5118838;27;20663;-70
2022/04/02 13:56:58;;;;;;;2.40;0.80;;;;;;;;;;5099940;27;20046;-70
2022/04/02 13:59:31;;;;;;;3.70;0.95;;;;;;;;;;5100769;27;20039;-71
2022/04/02 14:01:58;;;;;;;3.80;0.70;;;;;;;;;;5100296;27;20487;-71
2022/04/02 14:04:37;;;;;;;2.55;0.90;;;;;;;;;;5118204;27;20253;-70
2022/04/02 14:07:05;;;;;;;2.05;0.70;;;;;;;;;;5117680;27;20103;-70
2022/04/02 14:09:32;;;;;;;2.40;0.70;;;;;;;;;;5117404;27;20715;-71
2022/04/02 14:12:04;;;;;;;3.42;0.90;;;;;;;;;;5118107;27;20046;-70
2022/04/02 14:14:47;;;;;;;2.53;0.63;;;;;;;;;;5120009;27;20559;-71
2022/04/02 14:17:16;;;;;;;2.65;0.70;;;;;;;;;;5158803;27;20497;-70
2022/04/02 14:19:46;;;;;;;3.03;0.60;;;;;;;;;;5157104;27;20038;-71
2022/04/02 14:22:13;;;;;;;2.58;0.70;;;;;;;;;;5158615;27;20529;-70
2022/04/02 14:24:48;;;;;;;4.25;0.80;;;;;;;;;;5157577;27;20038;-71
2022/04/02 14:27:33;;;;;;;2.78;0.70;;;;;;;;;;5140417;27;20683;-70
2022/04/02 14:30:21;;;;;;;2.10;0.70;;;;;;;;;;5156528;27;20125;-70
2022/04/02 14:32:47;;;;;;;2.63;0.88;;;;;;;;;;5159277;27;20121;-71
2022/04/02 14:35:22;;;;;;;3.88;0.80;;;;;;;;;;5135231;27;20566;-71
2022/04/02 14:38:09;;;;;;;1.58;0.70;;;;;;;;;;5124653;27;20478;-70
2022/04/02 14:40:54;;;;;;;3.88;0.80;;;;;;;;;;5133836;27;20056;-71
2022/04/02 14:43:36;;;;;;;2.35;0.70;;;;;;;;;;5143729;27;20046;-71
2022/04/02 14:46:15;;;;;;;2.60;0.75;;;;;;;;;;5091685;27;20041;-72
2022/04/02 14:48:59;;;;;;;2.50;0.73;;;;;;;;;;5094569;27;20039;-71
2022/04/02 14:51:27;;;;;;;3.53;0.73;;;;;;;;;;5101510;27;20043;-71
2022/04/02 14:54:11;;;;;;;1.77;0.77;;;;;;;;;;5087309;27;20039;-71
2022/04/02 14:56:40;;;;;;;7.07;0.85;;;;;;;;;;5142882;27;20435;-72
2022/04/02 14:59:25;;;;;;;4.75;0.90;;;;;;;;;;5145956;27;20043;-72
2022/04/02 15:02:27;;;;;;;1.95;0.70;;;;;;;;;;5109237;27;20039;-72
2022/04/02 15:05:14;;;;;;;2.10;0.88;;;;;;;;;;5016059;28;20481;-71
2022/04/02 15:07:45;;;;;;;3.20;0.98;;;;;;;;;;5099645;27;20248;-72
2022/04/02 15:10:30;;;;;;;2.45;0.80;;;;;;;;;;5113995;27;20035;-72